• Join FlightAware (Why Join?)
  • Login
  • US Flag 
11:48AM EST


 

Airport Tracker/Info


-or-


 

Live Flight TrackerFlight Track Log ✈ ARF93 ✈ 07-Jan-2012 ✈ KHFY - KIGQ

Flight Track Log - Related Links

Times and Time Zones

All times are in EST time to prevent confusion due to time zone crossing. See the ARF93 flight status page for this flight to view local times or setup timezone preferences in your user account.

Time Position Orientation Groundspeed Altitude Reporting Facility
EST Latitude Longitude Course Direction KTS MPH feet Rate Location/Type
01:16PM 39.6667 -86.0833 360° North 99 114 2,100  Level Indianapolis TRACON
01:17PM 39.7000 -86.0833 360° North 97 112 3,100 540 Climbing Indianapolis TRACON
01:18PM 39.7333 -86.0833 57° Northeast 117 135 3,300  Climbing Indianapolis TRACON
01:19PM 39.7500 -86.0500 49° Northeast 141 162 3,200 -120 Descending Indianapolis TRACON
01:20PM 39.7833 -86.0000 38° Northeast 139 160 3,100 -60 Descending Indianapolis TRACON
01:21PM 39.8000 -85.9833 360° North 124 143 3,100  Level Indianapolis TRACON
01:22PM 39.8333 -85.9833 339° North 127 146 3,100 120 Level Indianapolis TRACON
01:23PM 39.8667 -86.0000 339° North 106 122 3,400 420 Climbing Indianapolis TRACON
01:24PM 39.9000 -86.0167 303° West 107 123 4,000 420 Climbing Indianapolis TRACON
01:25PM 39.9167 -86.0500 339° North 108 124 4,300 360 Climbing Indianapolis TRACON
01:26PM 39.9500 -86.0667 323° Northwest 111 128 4,700 360 Climbing Indianapolis TRACON
01:27PM 39.9667 -86.0833 339° North 111 128 5,000 480 Climbing Indianapolis TRACON
01:28PM 40.0000 -86.1000 339° North 110 127 5,800 420 Climbing Indianapolis TRACON
01:29PM 40.0333 -86.1167 323° Northwest 110 127 6,000 60 Climbing Indianapolis TRACON
01:30PM 40.0500 -86.1333 334° Northwest 119 137 6,000  Level Indianapolis TRACON
01:30PM 40.0578 -86.1383 334° Northwest 120 138 6,000  Level Chicago Center
01:31PM 40.0939 -86.1611 344° North 123 142 6,000  Level Chicago Center
01:32PM 40.1256 -86.1731 319° Northwest 124 143 6,000  Level Chicago Center
01:33PM 40.1536 -86.2044 331° Northwest 126 145 6,000  Level Chicago Center
01:34PM 40.1811 -86.2247 324° Northwest 124 143 6,000  Level Chicago Center
01:35PM 40.2111 -86.2533 331° Northwest 123 142 6,000  Level Chicago Center
01:36PM 40.2389 -86.2736 319° Northwest 124 143 6,100  Climbing Chicago Center
01:37PM 40.2667 -86.3050 327° Northwest 123 142 6,100  Level Chicago Center
01:38PM 40.2967 -86.3308 324° Northwest 125 144 6,100  Level Chicago Center
01:39PM 40.3244 -86.3569 322° Northwest 125 144 6,100 -60 Level Chicago Center
01:40PM 40.3522 -86.3856 322° Northwest 124 143 6,000 -60 Descending Chicago Center
01:41PM 40.3803 -86.4144 328° Northwest 127 146 6,000  Level Chicago Center
01:42PM 40.4122 -86.4403 324° Northwest 126 145 6,000  Level Chicago Center
01:43PM 40.4400 -86.4664 327° Northwest 125 144 6,000  Level Chicago Center
01:44PM 40.4675 -86.4897 327° Northwest 124 143 6,000  Level Chicago Center
01:45PM 40.4975 -86.5158 320° Northwest 121 139 6,000  Level Chicago Center
01:46PM 40.5211 -86.5419 322° Northwest 119 137 6,100  Climbing Chicago Center
01:47PM 40.5467 -86.5683 327° Northwest 122 140 6,100  Level Chicago Center
01:48PM 40.5744 -86.5917 317° Northwest 122 140 6,100 -60 Level Chicago Center
01:49PM 40.6003 -86.6233 328° Northwest 124 143 6,000 -60 Descending Chicago Center
01:50PM 40.6319 -86.6494 312° West 125 144 6,000  Level Chicago Center
01:51PM 40.6536 -86.6814 326° Northwest 123 142 6,000  Level Chicago Center
01:52PM 40.6833 -86.7075 278° West 125 144 6,000  Level Chicago Center
01:52PM 40.6836 -86.7103 319° Northwest 122 140 6,000  Level Chicago Center
01:53PM 40.7069 -86.7369 329° Northwest 130 150 6,000  Level Chicago Center
01:54PM 40.7367 -86.7603 328° Northwest 136 157 6,000  Level Chicago Center
01:55PM 40.7686 -86.7864 324° Northwest 131 151 6,100  Climbing Chicago Center
01:56PM 40.7964 -86.8128 329° Northwest 131 151 6,000 -60 Descending Chicago Center
01:57PM 40.8261 -86.8364 327° Northwest 131 151 6,000  Level Chicago Center
01:58PM 40.8536 -86.8600 327° Northwest 131 151 6,000  Level Chicago Center
01:59PM 40.8814 -86.8836 324° Northwest 126 145 6,000  Level Chicago Center
02:00PM 40.9089 -86.9103 325° Northwest 126 145 6,100  Climbing Chicago Center
02:01PM 40.9344 -86.9339 326° Northwest 126 145 6,100  Level Chicago Center
02:02PM 40.9642 -86.9603 324° Northwest 126 145 6,100 -60 Level Chicago Center
02:03PM 40.9919 -86.9869 329° Northwest 126 145 6,000 -60 Descending Chicago Center
02:04PM 41.0217 -87.0106 321° Northwest 126 145 6,000 -60 Level Chicago Center
02:05PM 41.0492 -87.0397 324° Northwest 126 145 5,900 -240 Descending Chicago Center
02:06PM 41.0769 -87.0664 328° Northwest 126 145 5,600 -360 Descending Chicago Center
02:07PM 41.1086 -87.0928 321° Northwest 131 151 5,200 -420 Descending Chicago Center
02:08PM 41.1386 -87.1250 326° Northwest 131 151 4,800 -300 Descending Chicago Center
02:09PM 41.1683 -87.1514 321° Northwest 131 151 4,700 -180 Descending Chicago Center
02:10PM 41.1958 -87.1808 321° Northwest 131 151 4,500 -120 Descending Chicago Center
02:11PM 41.2236 -87.2103 322° Northwest 131 151 4,500  Level Chicago Center
02:12PM 41.2492 -87.2372 317° Northwest 131 151 4,600 -180 Climbing Chicago Center
02:13PM 41.2747 -87.2694 324° Northwest 131 151 4,200 -540 Descending Chicago Center
02:14PM 41.3086 -87.3017 321° Northwest 131 151 3,600 -600 Descending Chicago Center
02:15PM 41.3383 -87.3339 328° Northwest 136 157 3,100 -360 Descending Chicago Center
02:16PM 41.3700 -87.3606 341° North 131 151 2,900  Descending Chicago Center
02:17PM 41.3833 -87.3667 331° Northwest 124 143 3,100 60 Climbing Chicago TRACON
02:17PM 41.3997 -87.3789 North 131 151 3,000 -120 Descending Chicago Center
02:18PM 41.4308 -87.3781 313° West 126 145 3,000  Level Chicago Center
02:26PM 41.6046 -87.6313 130° Southeast  Level Estimated
02:34PM 41.5333 -87.5167 130° Southeast  Level FlightAware Approximate